createdAt,value
2023-01-29T00:01:45.040Z,99.90
2023-01-29T00:04:46.010Z,99.90
2023-01-29T00:07:46.674Z,99.90
2023-01-29T00:10:47.895Z,99.90
2023-01-29T00:13:49.776Z,99.90
2023-01-29T00:16:51.472Z,99.90
2023-01-29T00:19:52.320Z,99.90
2023-01-29T00:22:53.392Z,99.90
2023-01-29T00:25:54.535Z,99.90
2023-01-29T00:28:57.325Z,99.90
2023-01-29T00:31:58.960Z,99.90
2023-01-29T00:34:59.950Z,99.90
2023-01-29T00:38:00.836Z,99.90
2023-01-29T00:41:27.395Z,99.90
2023-01-29T00:44:47.011Z,99.90
2023-01-29T00:47:47.640Z,99.90
2023-01-29T00:50:48.269Z,99.90
2023-01-29T00:53:49.134Z,99.90
2023-01-29T00:56:49.779Z,99.90
2023-01-29T00:59:51.996Z,99.90
2023-01-29T01:03:08.150Z,99.90
2023-01-29T01:06:11.141Z,99.90
2023-01-29T01:09:30.564Z,99.90
2023-01-29T01:12:31.898Z,99.90
2023-01-29T01:15:37.187Z,99.90
2023-01-29T01:18:38.429Z,99.90
2023-01-29T01:21:39.276Z,99.90
2023-01-29T01:24:40.103Z,99.90
2023-01-29T01:27:41.539Z,99.90
2023-01-29T01:30:42.442Z,99.90
2023-01-29T01:33:43.598Z,99.90
2023-01-29T01:36:44.571Z,99.90
2023-01-29T01:39:48.984Z,99.90
2023-01-29T01:42:54.957Z,99.90
2023-01-29T01:45:55.853Z,99.90
2023-01-29T01:49:04.431Z,99.90
2023-01-29T01:52:05.296Z,99.90
2023-01-29T01:55:08.771Z,99.90
2023-01-29T01:58:14.920Z,99.90
2023-01-29T02:01:16.588Z,99.90
2023-01-29T02:04:39.967Z,99.90
2023-01-29T02:08:06.140Z,99.90
2023-01-29T02:11:07.970Z,99.90
2023-01-29T02:14:09.155Z,99.90
2023-01-29T02:17:16.012Z,99.90
2023-01-29T02:20:29.953Z,99.90
2023-01-29T02:23:52.416Z,99.90
2023-01-29T02:27:05.328Z,99.90
2023-01-29T02:30:12.881Z,99.90
2023-01-29T02:33:16.862Z,99.90
2023-01-29T02:36:40.708Z,99.90
2023-01-29T02:40:05.197Z,99.90
2023-01-29T02:43:44.450Z,99.90
2023-01-29T02:47:11.240Z,99.90
2023-01-29T02:50:36.489Z,99.90
2023-01-29T02:53:44.633Z,99.90
2023-01-29T02:56:56.519Z,99.90
2023-01-29T03:00:07.147Z,99.90
2023-01-29T03:03:15.292Z,99.90
2023-01-29T03:06:28.473Z,99.90
2023-01-29T03:09:36.466Z,99.90
2023-01-29T03:12:41.164Z,99.90
2023-01-29T03:15:47.615Z,99.90
2023-01-29T03:19:13.808Z,99.90
2023-01-29T03:22:16.871Z,99.90
2023-01-29T03:25:39.381Z,99.90
2023-01-29T03:29:02.001Z,99.90
2023-01-29T03:32:09.152Z,99.90
2023-01-29T03:35:21.112Z,99.90
2023-01-29T03:38:22.615Z,99.90
2023-01-29T03:41:54.899Z,99.90
2023-01-29T03:45:08.685Z,99.90
2023-01-29T03:48:36.107Z,99.90
2023-01-29T03:51:50.932Z,99.90
2023-01-29T03:55:12.792Z,99.90
2023-01-29T03:58:32.694Z,99.90
2023-01-29T04:01:47.731Z,99.90
2023-01-29T04:04:52.783Z,99.90
2023-01-29T04:08:01.851Z,99.90
2023-01-29T04:11:08.566Z,99.90
2023-01-29T04:14:09.971Z,99.90
2023-01-29T04:17:25.032Z,99.90
2023-01-29T04:20:37.354Z,99.90
2023-01-29T04:23:38.375Z,99.90
2023-01-29T04:27:05.430Z,99.90
2023-01-29T04:30:09.821Z,99.90
2023-01-29T04:33:33.934Z,99.90
2023-01-29T04:36:41.470Z,99.90
2023-01-29T04:40:03.802Z,99.90
2023-01-29T04:43:09.740Z,99.90
2023-01-29T04:46:36.051Z,99.90
2023-01-29T04:49:55.082Z,99.90
2023-01-29T04:53:15.716Z,99.90
2023-01-29T04:56:30.515Z,99.90
2023-01-29T04:59:36.287Z,99.90
2023-01-29T05:02:39.916Z,99.90
2023-01-29T05:05:44.766Z,99.90
2023-01-29T05:08:47.674Z,99.90
2023-01-29T05:11:50.071Z,99.90
2023-01-29T05:14:53.771Z,99.90
2023-01-29T05:18:01.878Z,99.90
2023-01-29T05:21:06.622Z,99.90
2023-01-29T05:24:20.208Z,99.90
2023-01-29T05:27:50.051Z,99.90
2023-01-29T05:30:54.653Z,99.90
2023-01-29T05:33:56.066Z,99.90
2023-01-29T05:36:56.948Z,99.90
2023-01-29T05:39:57.745Z,99.90
2023-01-29T05:42:58.444Z,99.90
2023-01-29T05:46:01.314Z,99.90
2023-01-29T05:49:02.567Z,99.90
2023-01-29T05:52:03.608Z,99.90
2023-01-29T05:55:05.108Z,99.90
2023-01-29T05:58:06.358Z,99.90
2023-01-29T06:01:11.908Z,99.90
2023-01-29T06:04:12.903Z,99.90
2023-01-29T06:07:13.826Z,99.90
2023-01-29T06:10:17.570Z,99.90
2023-01-29T06:13:18.524Z,99.90
2023-01-29T06:16:19.646Z,99.90
2023-01-29T06:19:20.929Z,99.90
2023-01-29T06:22:21.707Z,99.90
2023-01-29T06:25:22.442Z,99.90
2023-01-29T06:28:23.480Z,99.90
2023-01-29T06:31:37.741Z,99.90
2023-01-29T06:34:39.971Z,99.90
2023-01-29T06:37:41.196Z,99.90
2023-01-29T06:40:42.274Z,99.90
2023-01-29T06:43:46.784Z,99.90
2023-01-29T06:46:47.842Z,99.90
2023-01-29T06:49:49.342Z,99.90
2023-01-29T06:52:50.108Z,99.90
2023-01-29T06:55:54.771Z,99.90
2023-01-29T06:58:55.736Z,99.90
2023-01-29T07:01:56.693Z,99.90
2023-01-29T07:04:57.775Z,99.90
2023-01-29T07:07:58.760Z,99.90
2023-01-29T07:11:03.136Z,99.90
2023-01-29T07:14:04.508Z,99.90
2023-01-29T07:17:05.447Z,99.90
2023-01-29T07:20:07.250Z,99.90
2023-01-29T07:23:12.342Z,99.90
2023-01-29T07:26:13.112Z,99.90
2023-01-29T07:29:13.738Z,99.90
2023-01-29T07:32:14.800Z,99.90
2023-01-29T07:35:16.010Z,99.90
2023-01-29T07:38:19.905Z,99.90
2023-01-29T07:41:20.836Z,99.90
2023-01-29T07:44:21.358Z,99.90
2023-01-29T07:47:22.048Z,99.90
2023-01-29T07:50:24.570Z,99.90
2023-01-29T07:53:25.786Z,99.90
2023-01-29T07:56:26.694Z,99.90
2023-01-29T07:59:27.622Z,99.90
2023-01-29T08:02:28.480Z,99.90
2023-01-29T08:05:29.936Z,99.90
2023-01-29T08:08:30.867Z,99.90
2023-01-29T08:11:32.121Z,99.90
2023-01-29T08:14:33.141Z,99.90
2023-01-29T08:17:34.821Z,99.90
2023-01-29T08:20:35.550Z,99.90
2023-01-29T08:23:36.210Z,99.90
2023-01-29T08:26:36.996Z,99.90
2023-01-29T08:29:37.964Z,99.90
2023-01-29T08:32:39.052Z,99.90
2023-01-29T08:35:41.337Z,99.90
2023-01-29T08:38:42.228Z,99.90
2023-01-29T08:41:43.100Z,99.90
2023-01-29T08:44:43.914Z,99.90
2023-01-29T08:47:50.088Z,99.90
2023-01-29T08:50:51.527Z,94.30
2023-01-29T08:53:52.492Z,89.00
2023-01-29T08:56:53.408Z,86.80
2023-01-29T08:59:54.116Z,90.20
2023-01-29T09:02:55.048Z,88.80
2023-01-29T09:05:56.134Z,86.40
2023-01-29T09:08:57.212Z,91.40
2023-01-29T09:11:58.008Z,92.80
2023-01-29T09:14:58.868Z,91.60
2023-01-29T09:18:04.321Z,88.20
2023-01-29T09:21:05.975Z,86.30
2023-01-29T09:24:07.325Z,86.80
2023-01-29T09:27:10.127Z,85.40
2023-01-29T09:30:11.635Z,83.60
2023-01-29T09:33:12.884Z,79.00
2023-01-29T09:36:14.745Z,79.30
2023-01-29T09:39:15.308Z,82.20
2023-01-29T09:42:27.685Z,79.30
2023-01-29T09:45:29.834Z,84.60
2023-01-29T09:48:35.063Z,99.90
2023-01-29T09:51:49.965Z,99.90
2023-01-29T09:55:15.485Z,99.90
2023-01-29T09:58:32.136Z,99.90
2023-01-29T10:01:41.405Z,99.90
2023-01-29T10:05:12.943Z,99.90
2023-01-29T10:08:33.098Z,99.90
2023-01-29T10:11:43.326Z,99.90
2023-01-29T10:14:50.247Z,99.90
2023-01-29T10:18:00.341Z,99.90
2023-01-29T10:21:25.833Z,99.90
2023-01-29T10:24:52.943Z,99.90
2023-01-29T10:27:55.167Z,99.90
2023-01-29T10:31:01.480Z,99.90
2023-01-29T10:34:16.888Z,99.90
2023-01-29T10:37:35.095Z,99.90
2023-01-29T10:40:47.117Z,99.90
2023-01-29T10:43:54.937Z,99.90
2023-01-29T10:47:01.043Z,99.90
2023-01-29T10:50:15.637Z,99.90
2023-01-29T10:53:37.455Z,99.90
2023-01-29T10:56:47.033Z,99.90
2023-01-29T11:00:21.685Z,99.90
2023-01-29T11:03:29.834Z,99.90
2023-01-29T11:06:35.918Z,99.90
2023-01-29T11:09:44.049Z,99.90
2023-01-29T11:12:46.492Z,99.90
2023-01-29T11:15:47.253Z,99.90
2023-01-29T11:18:57.751Z,99.90
2023-01-29T11:22:01.467Z,99.90
2023-01-29T11:25:17.350Z,99.90
2023-01-29T11:28:36.667Z,99.90
2023-01-29T11:31:38.871Z,99.90
2023-01-29T11:34:58.776Z,99.90
2023-01-29T11:38:21.659Z,99.90
2023-01-29T11:41:24.487Z,99.90
2023-01-29T11:44:41.399Z,99.90
2023-01-29T11:47:42.289Z,99.90
2023-01-29T11:50:43.811Z,99.90
2023-01-29T11:53:49.690Z,99.90
2023-01-29T11:56:51.895Z,99.90
2023-01-29T11:59:54.930Z,99.90
2023-01-29T12:03:07.473Z,99.90
2023-01-29T12:06:21.834Z,99.90
2023-01-29T12:09:28.341Z,99.90
2023-01-29T12:12:38.305Z,99.90
2023-01-29T12:15:41.061Z,99.90
2023-01-29T12:18:47.233Z,99.90
2023-01-29T12:21:57.763Z,99.90
2023-01-29T12:25:16.688Z,99.90
2023-01-29T12:28:45.204Z,99.90
2023-01-29T12:32:35.839Z,99.90
2023-01-29T12:35:49.072Z,99.90
2023-01-29T12:38:49.683Z,99.90
2023-01-29T12:42:08.504Z,99.90
2023-01-29T12:45:15.275Z,99.90
2023-01-29T12:48:23.597Z,99.90
2023-01-29T12:51:31.469Z,99.90
2023-01-29T12:54:39.753Z,99.90
2023-01-29T12:57:53.936Z,99.90
2023-01-29T13:00:59.382Z,99.90
2023-01-29T13:04:30.812Z,99.90
2023-01-29T13:07:42.231Z,99.90
2023-01-29T13:10:47.611Z,99.90
2023-01-29T13:13:56.772Z,99.90
2023-01-29T13:17:13.528Z,99.90
2023-01-29T13:20:35.373Z,99.90
2023-01-29T13:24:03.452Z,99.90
2023-01-29T13:27:04.415Z,99.90
2023-01-29T13:30:05.785Z,99.90
2023-01-29T13:33:10.255Z,99.90
2023-01-29T13:36:19.368Z,99.90
2023-01-29T13:39:28.823Z,99.90
2023-01-29T13:42:44.171Z,99.90
2023-01-29T13:45:46.199Z,99.90
2023-01-29T13:48:50.791Z,99.90
2023-01-29T13:51:51.948Z,99.90
2023-01-29T13:55:00.536Z,99.90
2023-01-29T13:58:22.504Z,99.90
2023-01-29T14:01:49.549Z,99.90
2023-01-29T14:04:50.259Z,99.90
2023-01-29T14:07:51.071Z,99.90
2023-01-29T14:11:15.427Z,99.90
2023-01-29T14:14:48.423Z,99.90
2023-01-29T14:18:09.577Z,99.90
2023-01-29T14:21:29.959Z,99.90
2023-01-29T14:24:31.903Z,99.90
2023-01-29T14:27:34.348Z,99.90
2023-01-29T14:30:36.474Z,99.90
2023-01-29T14:33:43.419Z,99.90
2023-01-29T14:36:47.261Z,99.90
2023-01-29T14:39:50.554Z,99.90
2023-01-29T14:43:20.058Z,99.90
2023-01-29T14:46:35.637Z,99.90
2023-01-29T14:49:59.852Z,99.90
2023-01-29T14:53:04.051Z,99.90
2023-01-29T14:56:31.786Z,99.90
2023-01-29T14:59:46.227Z,99.90
2023-01-29T15:02:53.638Z,99.90
2023-01-29T15:05:59.577Z,99.90
2023-01-29T15:09:26.619Z,99.90
2023-01-29T15:12:50.527Z,99.90
2023-01-29T15:16:02.617Z,99.90
2023-01-29T15:19:16.112Z,99.90
2023-01-29T15:22:19.306Z,99.90
2023-01-29T15:25:21.791Z,99.90
2023-01-29T15:28:22.988Z,99.90
2023-01-29T15:31:23.975Z,99.90
2023-01-29T15:34:25.473Z,99.90
2023-01-29T15:37:29.489Z,99.90
2023-01-29T15:40:31.463Z,99.90
2023-01-29T15:43:37.165Z,99.90
2023-01-29T15:46:41.793Z,99.90
2023-01-29T15:49:42.917Z,99.90
2023-01-29T15:52:46.089Z,99.90
2023-01-29T15:55:48.195Z,99.90
2023-01-29T15:58:51.101Z,99.90
2023-01-29T16:01:52.918Z,99.90
2023-01-29T16:04:54.978Z,99.90
2023-01-29T16:07:57.333Z,99.90
2023-01-29T16:11:00.757Z,99.90
2023-01-29T16:14:02.950Z,99.90
2023-01-29T16:17:30.325Z,99.90
2023-01-29T16:20:47.095Z,99.90
2023-01-29T16:23:56.700Z,99.90
2023-01-29T16:27:07.348Z,99.90
2023-01-29T16:30:09.486Z,99.90
2023-01-29T16:33:15.920Z,99.90
2023-01-29T16:36:22.942Z,99.90
2023-01-29T16:39:32.738Z,99.90
2023-01-29T16:42:35.964Z,99.90
2023-01-29T16:45:36.723Z,99.90
2023-01-29T16:48:37.371Z,99.90
2023-01-29T16:51:39.628Z,99.90
2023-01-29T16:54:43.020Z,99.90
2023-01-29T16:57:48.078Z,99.90
2023-01-29T17:00:56.095Z,99.90
2023-01-29T17:04:10.237Z,99.90
2023-01-29T17:07:17.387Z,99.90
2023-01-29T17:10:20.555Z,99.90
2023-01-29T17:13:45.419Z,99.90
2023-01-29T17:17:07.046Z,99.90
2023-01-29T17:20:17.117Z,99.90
2023-01-29T17:23:18.201Z,99.90
2023-01-29T17:26:19.873Z,99.90
2023-01-29T17:29:31.292Z,99.90
2023-01-29T17:32:44.686Z,99.90
2023-01-29T17:35:46.512Z,99.90
2023-01-29T17:38:47.437Z,99.90
2023-01-29T17:41:57.507Z,99.90
2023-01-29T17:44:58.469Z,99.90
2023-01-29T17:47:59.752Z,99.90
2023-01-29T17:51:03.732Z,99.90
2023-01-29T17:54:04.799Z,99.90
2023-01-29T17:57:05.758Z,99.90
2023-01-29T18:00:25.165Z,99.90
2023-01-29T18:03:27.609Z,99.90
2023-01-29T18:06:30.087Z,99.90
2023-01-29T18:09:31.262Z,99.90
2023-01-29T18:12:32.375Z,99.90
2023-01-29T18:15:33.117Z,99.90
2023-01-29T18:18:34.003Z,99.90
2023-01-29T18:21:35.047Z,99.90
2023-01-29T18:24:36.299Z,99.90
2023-01-29T18:27:37.024Z,99.90
2023-01-29T18:30:37.999Z,99.90
2023-01-29T18:33:38.844Z,99.90
2023-01-29T18:36:39.751Z,99.90
2023-01-29T18:39:40.540Z,99.90
2023-01-29T18:42:41.704Z,99.90
2023-01-29T18:45:42.740Z,99.90
2023-01-29T18:48:43.607Z,99.90
2023-01-29T18:51:44.632Z,99.90
2023-01-29T18:54:45.831Z,99.90
2023-01-29T18:58:27.272Z,99.90
2023-01-29T19:01:11.774Z,99.90
2023-01-29T19:04:12.847Z,99.90
2023-01-29T19:07:14.781Z,99.90
2023-01-29T19:10:17.092Z,99.90
2023-01-29T19:13:18.090Z,99.90
2023-01-29T19:16:19.186Z,99.90
2023-01-29T19:19:22.798Z,99.90
2023-01-29T19:22:24.009Z,99.90
2023-01-29T19:25:25.162Z,99.90
2023-01-29T19:28:25.944Z,99.90
2023-01-29T19:31:27.142Z,99.90
2023-01-29T19:34:27.772Z,99.90
2023-01-29T19:37:28.719Z,99.90
2023-01-29T19:40:29.851Z,99.90
2023-01-29T19:43:30.968Z,99.90
2023-01-29T19:46:32.461Z,99.90
2023-01-29T19:49:34.248Z,99.90
2023-01-29T19:52:50.333Z,99.90
2023-01-29T19:56:04.957Z,99.90
2023-01-29T19:59:07.488Z,99.90
2023-01-29T20:02:09.709Z,99.90
2023-01-29T20:05:12.165Z,99.90
2023-01-29T20:08:13.262Z,99.90
2023-01-29T20:11:15.643Z,99.90
2023-01-29T20:14:16.691Z,99.90
2023-01-29T20:17:17.903Z,99.90
2023-01-29T20:20:19.564Z,99.90
2023-01-29T20:23:37.531Z,99.90
2023-01-29T20:26:39.283Z,99.90
2023-01-29T20:29:40.237Z,99.90
2023-01-29T20:32:40.836Z,99.90
2023-01-29T20:35:41.496Z,99.90
2023-01-29T20:38:42.260Z,99.90
2023-01-29T20:41:43.018Z,99.90
2023-01-29T20:44:43.849Z,99.90
2023-01-29T20:47:45.042Z,99.90
2023-01-29T20:50:46.100Z,99.90
2023-01-29T20:53:48.219Z,99.90
2023-01-29T20:56:49.218Z,99.90
2023-01-29T20:59:50.460Z,99.90
2023-01-29T21:02:51.108Z,99.90
2023-01-29T21:05:52.444Z,99.90
2023-01-29T21:08:52.992Z,99.90
2023-01-29T21:11:53.906Z,99.90
2023-01-29T21:14:54.424Z,99.90
2023-01-29T21:17:55.552Z,99.90
2023-01-29T21:20:56.631Z,99.90
2023-01-29T21:23:58.472Z,99.90
2023-01-29T21:26:59.682Z,99.90
2023-01-29T21:30:01.155Z,99.90
2023-01-29T21:33:01.902Z,99.90
2023-01-29T21:36:03.139Z,99.90
2023-01-29T21:39:17.696Z,99.90
2023-01-29T21:42:37.060Z,99.90
2023-01-29T21:45:38.926Z,99.90
2023-01-29T21:48:40.525Z,99.90
2023-01-29T21:51:42.261Z,99.90
2023-01-29T21:54:47.032Z,99.90
2023-01-29T21:57:48.821Z,99.90
2023-01-29T22:00:50.779Z,99.90
2023-01-29T22:03:51.426Z,99.90
2023-01-29T22:06:52.427Z,99.90
2023-01-29T22:09:53.103Z,99.90
2023-01-29T22:12:53.987Z,99.90
2023-01-29T22:15:55.519Z,99.90
2023-01-29T22:18:56.498Z,99.90
2023-01-29T22:21:57.912Z,99.90
2023-01-29T22:24:59.588Z,99.90
2023-01-29T22:28:00.501Z,99.90
2023-01-29T22:31:02.509Z,99.90
2023-01-29T22:34:03.618Z,99.90
2023-01-29T22:37:04.554Z,99.90
2023-01-29T22:40:05.698Z,99.90
2023-01-29T22:43:06.563Z,99.90
2023-01-29T22:46:08.713Z,99.90
2023-01-29T22:49:09.589Z,99.90
2023-01-29T22:52:10.727Z,99.90
2023-01-29T22:55:13.230Z,99.90
2023-01-29T22:58:14.140Z,99.90
2023-01-29T23:01:21.608Z,99.90
2023-01-29T23:04:23.030Z,99.90
2023-01-29T23:07:23.630Z,99.90
2023-01-29T23:10:24.574Z,99.90
2023-01-29T23:13:25.333Z,99.90
2023-01-29T23:16:28.494Z,99.90
2023-01-29T23:19:30.641Z,99.90
2023-01-29T23:22:31.315Z,99.90
2023-01-29T23:25:50.477Z,99.90
2023-01-29T23:28:51.623Z,99.90
2023-01-29T23:31:52.346Z,99.90
2023-01-29T23:34:53.278Z,99.90
2023-01-29T23:37:53.924Z,99.90
2023-01-29T23:40:58.119Z,99.90
2023-01-29T23:43:58.664Z,99.90
2023-01-29T23:46:59.424Z,99.90
2023-01-29T23:50:00.123Z,99.90
2023-01-29T23:53:01.039Z,99.90
2023-01-29T23:56:03.983Z,99.90
2023-01-29T23:59:04.632Z,99.90
